Time;durP1;ratioP1;P1;durP2;ratioP2;P2;SDS_P1;SDS_P2;PMS_P1;PMS_P2;Temp;Humidity;BMP_temperature;BMP_pressure;BME280_temperature;BME280_humidity;BME280_pressure;Samples;Min_cycle;Max_cycle;Signal;HPM_P1;HPM_P2
2022/12/02 00:00:24;;;;;;;43.22;20.73;;;4.30;99.90;;;;;;5042585;28;20396;-72
2022/12/02 00:02:50;;;;;;;43.45;21.13;;;4.30;99.90;;;;;;5070561;28;20511;-72
2022/12/02 00:05:17;;;;;;;44.28;20.55;;;4.30;99.90;;;;;;5071680;28;20094;-72
2022/12/02 00:07:47;;;;;;;42.50;21.38;;;4.40;99.90;;;;;;5056364;28;20037;-72
2022/12/02 00:10:24;;;;;;;43.30;20.13;;;4.30;99.90;;;;;;5073098;28;20086;-72
2022/12/02 00:12:50;;;;;;;41.80;19.52;;;4.40;99.90;;;;;;5071930;28;20037;-72
2022/12/02 00:15:41;;;;;;;44.20;20.75;;;4.30;99.90;;;;;;5071745;28;20120;-72
2022/12/02 00:18:12;;;;;;;40.97;20.05;;;4.40;99.90;;;;;;5073066;28;20431;-72
2022/12/02 00:20:38;;;;;;;38.72;20.40;;;4.30;99.90;;;;;;5053635;28;20083;-72
2022/12/02 00:23:04;;;;;;;39.40;20.55;;;4.40;99.90;;;;;;5063545;28;20067;-72
2022/12/02 00:25:29;;;;;;;37.60;18.75;;;4.40;99.90;;;;;;5072739;28;20036;-72
2022/12/02 00:27:55;;;;;;;36.40;19.33;;;4.30;99.90;;;;;;5055932;28;20052;-72
2022/12/02 00:30:21;;;;;;;38.25;19.17;;;4.40;99.90;;;;;;5053867;28;20075;-72
2022/12/02 00:32:46;;;;;;;38.72;20.25;;;4.40;99.90;;;;;;5055989;28;20033;-71
2022/12/02 00:35:12;;;;;;;39.15;20.05;;;4.40;99.90;;;;;;5072564;28;20435;-72
2022/12/02 00:37:38;;;;;;;37.08;19.77;;;4.40;99.90;;;;;;5054789;28;20044;-72
2022/12/02 00:40:04;;;;;;;41.70;20.52;;;4.40;99.90;;;;;;5043623;28;20378;-72
2022/12/02 00:42:30;;;;;;;37.60;19.17;;;4.40;99.90;;;;;;5073006;28;20421;-72
2022/12/02 00:47:39;;;;;;;38.05;19.45;;;4.40;99.90;;;;;;5071456;28;20044;-72
2022/12/02 00:50:05;;;;;;;36.78;19.52;;;4.30;99.90;;;;;;5070771;28;20512;-72
2022/12/02 00:52:31;;;;;;;39.78;20.50;;;4.30;99.90;;;;;;5072187;28;20119;-72
2022/12/02 00:54:56;;;;;;;33.90;17.48;;;4.30;99.90;;;;;;5054966;28;20512;-72
2022/12/02 00:57:22;;;;;;;37.70;18.55;;;4.20;99.90;;;;;;5070907;28;20043;-71
2022/12/02 00:59:47;;;;;;;33.42;15.82;;;4.30;99.90;;;;;;5051152;28;20040;-71
2022/12/02 01:02:13;;;;;;;33.05;16.33;;;4.10;99.90;;;;;;5072097;28;20101;-72
2022/12/02 01:04:39;;;;;;;32.65;16.50;;;4.00;99.90;;;;;;5071972;28;20056;-72
2022/12/02 01:07:04;;;;;;;34.95;16.83;;;4.10;99.90;;;;;;5070978;28;20036;-72
2022/12/02 01:09:30;;;;;;;34.00;15.05;;;4.10;99.90;;;;;;5070062;28;20053;-72
2022/12/02 01:11:56;;;;;;;29.02;13.30;;;4.00;99.90;;;;;;5051964;28;20040;-72
2022/12/02 01:14:21;;;;;;;31.15;15.43;;;4.10;99.90;;;;;;5051933;28;20400;-72
2022/12/02 01:16:47;;;;;;;28.48;14.88;;;4.00;99.90;;;;;;5035192;28;20041;-72
2022/12/02 01:19:12;;;;;;;32.83;16.23;;;4.00;99.90;;;;;;5055483;28;20048;-72
2022/12/02 01:21:38;;;;;;;29.60;13.93;;;4.00;99.90;;;;;;5053799;28;20043;-72
2022/12/02 01:24:04;;;;;;;32.42;14.98;;;4.00;99.90;;;;;;5070540;28;20397;-71
2022/12/02 01:26:29;;;;;;;27.33;12.93;;;4.00;99.90;;;;;;5055092;28;20119;-72
2022/12/02 01:28:55;;;;;;;28.17;13.98;;;4.10;99.90;;;;;;5071713;28;20036;-72
2022/12/02 01:31:21;;;;;;;26.67;13.07;;;4.10;99.90;;;;;;5052905;28;20040;-72
2022/12/02 01:33:47;;;;;;;24.33;12.02;;;4.00;99.90;;;;;;5054981;28;20033;-72
2022/12/02 01:36:12;;;;;;;28.25;13.68;;;4.00;99.90;;;;;;5055341;28;20037;-72
2022/12/02 01:38:38;;;;;;;29.40;13.98;;;4.00;99.90;;;;;;5070560;28;20040;-72
2022/12/02 01:41:05;;;;;;;29.88;14.65;;;4.00;99.90;;;;;;5040085;28;20120;-72
2022/12/02 01:43:30;;;;;;;30.02;13.68;;;3.90;99.90;;;;;;5034321;28;20051;-71
2022/12/02 01:45:56;;;;;;;29.13;14.15;;;3.80;99.90;;;;;;5035322;28;20400;-72
2022/12/02 01:48:22;;;;;;;27.63;13.27;;;3.80;99.90;;;;;;5064545;28;20040;-72
2022/12/02 01:50:48;;;;;;;26.00;13.20;;;3.80;99.90;;;;;;5053516;28;20043;-72
2022/12/02 01:53:14;;;;;;;29.08;13.00;;;3.90;99.90;;;;;;5055027;28;20041;-72
2022/12/02 01:55:40;;;;;;;27.58;13.55;;;3.90;99.90;;;;;;5071570;28;20032;-72
2022/12/02 01:58:10;;;;;;;29.42;13.10;;;4.00;99.90;;;;;;5053643;28;20032;-72
2022/12/02 02:00:36;;;;;;;27.15;13.10;;;4.00;99.90;;;;;;5070129;28;20569;-72
2022/12/02 02:03:01;;;;;;;29.65;13.80;;;4.00;99.90;;;;;;5071629;28;20048;-72
2022/12/02 02:05:30;;;;;;;25.58;12.73;;;3.90;99.90;;;;;;5057074;28;20053;-72
2022/12/02 02:08:04;;;;;;;27.88;13.52;;;3.90;99.90;;;;;;5056537;28;20105;-72
2022/12/02 02:10:30;;;;;;;26.52;13.10;;;3.90;99.90;;;;;;5071113;28;20055;-72
2022/12/02 02:12:56;;;;;;;30.08;13.63;;;3.90;99.90;;;;;;5058683;28;20408;-72
2022/12/02 02:15:22;;;;;;;28.98;14.48;;;3.90;99.90;;;;;;5075261;28;20066;-72
2022/12/02 02:17:48;;;;;;;31.15;14.65;;;3.90;99.90;;;;;;5074133;28;20040;-72
2022/12/02 02:20:17;;;;;;;31.45;14.00;;;3.90;99.90;;;;;;5074040;28;20035;-72
2022/12/02 02:22:55;;;;;;;30.85;14.45;;;3.90;99.90;;;;;;5058748;28;20054;-72
2022/12/02 02:25:20;;;;;;;28.58;13.35;;;3.90;99.90;;;;;;5055367;28;20044;-72
2022/12/02 02:27:52;;;;;;;29.02;13.60;;;3.80;99.90;;;;;;5058292;28;20044;-72
2022/12/02 02:30:19;;;;;;;30.80;13.57;;;3.80;99.90;;;;;;5056884;28;20044;-72
2022/12/02 02:32:45;;;;;;;31.27;14.32;;;3.90;99.90;;;;;;5058544;28;20405;-72
2022/12/02 02:35:11;;;;;;;27.85;13.82;;;3.80;99.90;;;;;;5058295;28;20036;-72
2022/12/02 02:37:36;;;;;;;29.15;14.45;;;3.90;99.90;;;;;;5073571;28;20480;-72
2022/12/02 02:40:03;;;;;;;33.85;15.77;;;3.80;99.90;;;;;;5049333;28;20044;-72
2022/12/02 02:42:28;;;;;;;32.22;14.90;;;3.70;99.90;;;;;;5062790;28;20397;-72
2022/12/02 02:44:55;;;;;;;33.50;14.88;;;3.80;99.90;;;;;;5054753;28;20036;-72
2022/12/02 02:47:21;;;;;;;35.55;14.80;;;3.80;99.90;;;;;;5062999;28;20561;-72
2022/12/02 02:49:47;;;;;;;31.17;14.73;;;3.80;99.90;;;;;;5073369;28;20040;-72
2022/12/02 02:52:12;;;;;;;36.70;16.92;;;3.80;99.90;;;;;;5056771;28;20041;-72
2022/12/02 02:54:38;;;;;;;41.33;16.63;;;3.80;99.90;;;;;;5074430;28;20093;-72
2022/12/02 02:57:03;;;;;;;33.58;15.90;;;3.80;99.90;;;;;;5073706;28;20032;-72
2022/12/02 02:59:29;;;;;;;36.75;17.00;;;3.70;99.90;;;;;;5057891;28;20067;-72
2022/12/02 03:01:55;;;;;;;36.30;17.40;;;3.70;99.90;;;;;;5072987;28;20059;-72
2022/12/02 03:04:23;;;;;;;31.05;13.75;;;3.70;99.90;;;;;;5057590;28;20045;-72
2022/12/02 03:06:50;;;;;;;35.25;16.90;;;3.80;99.90;;;;;;5072470;28;20135;-72
2022/12/02 03:09:18;;;;;;;36.35;16.85;;;3.80;99.90;;;;;;5074132;28;20048;-72
2022/12/02 03:11:48;;;;;;;39.10;17.45;;;3.80;99.90;;;;;;5058234;28;20079;-72
2022/12/02 03:14:14;;;;;;;37.03;17.08;;;3.70;99.90;;;;;;5037483;28;20484;-72
2022/12/02 03:16:40;;;;;;;35.00;17.33;;;3.70;99.90;;;;;;5036606;28;20049;-72
2022/12/02 03:19:06;;;;;;;36.75;18.50;;;3.70;99.90;;;;;;5073283;28;20044;-72
2022/12/02 03:21:33;;;;;;;37.40;16.50;;;3.70;99.90;;;;;;5071543;28;20041;-72
2022/12/02 03:24:01;;;;;;;36.10;17.02;;;3.70;99.90;;;;;;5074005;28;20501;-72
2022/12/02 03:26:27;;;;;;;37.20;16.48;;;3.70;99.90;;;;;;5073932;28;20166;-72
2022/12/02 03:28:54;;;;;;;37.70;17.40;;;3.70;99.90;;;;;;5071673;28;20040;-72
2022/12/02 03:31:20;;;;;;;34.85;17.45;;;3.70;99.90;;;;;;5072276;28;20458;-72
2022/12/02 03:33:47;;;;;;;37.08;16.95;;;3.70;99.90;;;;;;5073756;28;20036;-72
2022/12/02 03:36:12;;;;;;;35.58;16.90;;;3.70;99.90;;;;;;5074060;28;20064;-72
2022/12/02 03:38:38;;;;;;;32.03;16.77;;;3.80;99.90;;;;;;5054391;28;20485;-72
2022/12/02 03:41:05;;;;;;;33.00;15.80;;;3.80;99.90;;;;;;5040819;28;20037;-72
2022/12/02 03:43:32;;;;;;;35.13;16.33;;;3.70;99.90;;;;;;5059191;28;20037;-72
2022/12/02 03:45:58;;;;;;;35.50;16.42;;;3.70;99.90;;;;;;5037216;28;20041;-72
2022/12/02 03:48:25;;;;;;;34.17;16.55;;;3.70;99.90;;;;;;5066476;28;20047;-72
2022/12/02 03:50:52;;;;;;;33.58;16.27;;;3.70;99.90;;;;;;5054392;28;20045;-72
2022/12/02 03:53:20;;;;;;;33.85;17.48;;;3.70;99.90;;;;;;5061989;28;20033;-72
2022/12/02 03:55:46;;;;;;;35.28;17.10;;;3.60;99.90;;;;;;5036775;28;20489;-72
2022/12/02 03:58:11;;;;;;;36.95;16.67;;;3.70;99.90;;;;;;5064791;28;20037;-72
2022/12/02 04:00:37;;;;;;;36.97;15.82;;;3.60;99.90;;;;;;5055239;28;20051;-72
2022/12/02 04:03:03;;;;;;;35.78;16.48;;;3.60;99.90;;;;;;5056476;28;20087;-72
2022/12/02 04:05:29;;;;;;;34.05;16.30;;;3.60;99.90;;;;;;5056591;28;20135;-72
2022/12/02 04:07:55;;;;;;;33.63;16.55;;;3.60;99.90;;;;;;5055435;28;20548;-72
2022/12/02 04:10:20;;;;;;;34.75;15.68;;;3.70;99.90;;;;;;5060908;28;20401;-72
2022/12/02 04:12:46;;;;;;;33.80;17.35;;;3.60;99.90;;;;;;5056435;28;20068;-72
2022/12/02 04:15:11;;;;;;;32.10;16.33;;;3.60;99.90;;;;;;5072904;28;20036;-72
2022/12/02 04:17:37;;;;;;;34.67;15.95;;;3.50;99.90;;;;;;5071890;28;20041;-72
2022/12/02 04:20:04;;;;;;;32.75;16.20;;;3.50;99.90;;;;;;5072795;28;20465;-72
2022/12/02 04:22:30;;;;;;;34.65;15.43;;;3.50;99.90;;;;;;5071411;28;20507;-72
2022/12/02 04:24:59;;;;;;;34.80;16.10;;;3.50;99.90;;;;;;5072729;28;20033;-72
2022/12/02 04:27:25;;;;;;;33.78;16.70;;;3.50;99.90;;;;;;5054142;28;20040;-72
2022/12/02 04:29:51;;;;;;;33.65;16.15;;;3.50;99.90;;;;;;5055844;28;20043;-72
2022/12/02 04:32:17;;;;;;;38.58;18.40;;;3.50;99.90;;;;;;5054486;28;20041;-72
2022/12/02 04:34:43;;;;;;;35.50;17.20;;;3.40;99.90;;;;;;5072583;28;20119;-72
2022/12/02 04:37:08;;;;;;;42.08;20.67;;;3.40;99.90;;;;;;5070480;28;20063;-72
2022/12/02 04:39:34;;;;;;;42.83;18.85;;;3.40;99.90;;;;;;5048794;28;20033;-72
2022/12/02 04:42:00;;;;;;;37.72;17.48;;;3.40;99.90;;;;;;5043507;28;20044;-72
2022/12/02 04:44:25;;;;;;;44.15;20.23;;;3.40;99.90;;;;;;5035882;28;20069;-72
2022/12/02 04:46:51;;;;;;;41.88;19.00;;;3.40;99.90;;;;;;5052750;28;20071;-72
2022/12/02 04:49:17;;;;;;;41.03;18.85;;;3.40;99.90;;;;;;5055648;28;20071;-72
2022/12/02 04:51:42;;;;;;;40.45;17.15;;;3.40;99.90;;;;;;5070541;28;20080;-72
2022/12/02 04:54:08;;;;;;;40.95;18.13;;;3.50;99.90;;;;;;5072231;28;20034;-72
2022/12/02 04:56:33;;;;;;;41.25;18.15;;;3.50;99.90;;;;;;5072341;28;20040;-72
2022/12/02 04:58:59;;;;;;;40.45;17.92;;;3.40;99.90;;;;;;5071145;28;20115;-72
2022/12/02 05:01:25;;;;;;;41.03;18.88;;;3.40;99.90;;;;;;5054029;28;20036;-72
2022/12/02 05:03:50;;;;;;;37.83;17.35;;;3.40;99.90;;;;;;5071997;28;20087;-72
2022/12/02 05:06:16;;;;;;;44.03;19.52;;;3.40;99.90;;;;;;5055528;28;20059;-72
2022/12/02 05:08:42;;;;;;;41.55;18.40;;;3.40;99.90;;;;;;5071264;28;20078;-72
2022/12/02 05:11:07;;;;;;;43.63;19.02;;;3.40;99.90;;;;;;5056106;28;20044;-72
2022/12/02 05:13:33;;;;;;;43.35;19.02;;;3.40;99.90;;;;;;5072024;28;20145;-72
2022/12/02 05:15:58;;;;;;;39.70;18.20;;;3.50;99.90;;;;;;5071909;28;20051;-72
2022/12/02 05:18:24;;;;;;;38.92;18.85;;;3.50;99.90;;;;;;5054510;28;20170;-72
2022/12/02 05:20:49;;;;;;;42.80;18.38;;;3.40;99.90;;;;;;5053754;28;20052;-72
2022/12/02 05:23:15;;;;;;;40.35;19.92;;;3.40;99.90;;;;;;5055345;28;20059;-72
2022/12/02 05:25:41;;;;;;;39.72;19.25;;;3.40;99.90;;;;;;5071894;28;20036;-72
2022/12/02 05:28:06;;;;;;;37.53;17.95;;;3.30;99.90;;;;;;5052003;28;20043;-72
2022/12/02 05:30:32;;;;;;;40.50;18.02;;;3.40;99.90;;;;;;5069260;28;20048;-72
2022/12/02 05:32:57;;;;;;;38.78;18.75;;;3.40;99.90;;;;;;5052280;28;20120;-72
2022/12/02 05:35:23;;;;;;;40.28;18.45;;;3.40;99.90;;;;;;5055153;28;20413;-72
2022/12/02 05:37:48;;;;;;;40.33;19.23;;;3.40;99.90;;;;;;5054120;28;20471;-72
2022/12/02 05:40:14;;;;;;;39.55;18.42;;;3.30;99.90;;;;;;5063765;28;20044;-72
2022/12/02 05:42:41;;;;;;;42.08;18.73;;;3.20;99.90;;;;;;5070038;28;20127;-72
2022/12/02 05:45:19;;;;;;;40.67;19.35;;;3.20;99.90;;;;;;5075742;28;20504;-72
2022/12/02 05:47:54;;;;;;;42.40;19.20;;;3.20;99.90;;;;;;5057889;28;20044;-72
2022/12/02 05:50:20;;;;;;;40.22;19.33;;;3.20;99.90;;;;;;5059001;28;20048;-72
2022/12/02 05:52:48;;;;;;;44.35;20.75;;;3.10;99.90;;;;;;5071440;28;20029;-72
2022/12/02 05:55:20;;;;;;;37.80;18.15;;;3.20;99.90;;;;;;5075960;28;20106;-72
2022/12/02 05:57:47;;;;;;;42.88;21.52;;;3.20;99.90;;;;;;5059005;28;20075;-72
2022/12/02 06:00:21;;;;;;;42.80;21.20;;;3.20;99.90;;;;;;5058767;28;20127;-72
2022/12/02 06:02:53;;;;;;;46.22;19.88;;;3.20;99.90;;;;;;5050878;28;20056;-72
2022/12/02 06:05:22;;;;;;;40.95;19.30;;;3.20;99.90;;;;;;5058829;28;20044;-72
2022/12/02 06:07:51;;;;;;;45.00;19.90;;;3.20;99.90;;;;;;5057611;28;20089;-72
2022/12/02 06:10:31;;;;;;;40.85;18.73;;;3.20;99.90;;;;;;5075152;28;20037;-72
2022/12/02 06:13:18;;;;;;;45.75;18.58;;;3.20;99.90;;;;;;5074136;28;20412;-72
2022/12/02 06:15:44;;;;;;;40.83;19.52;;;3.20;99.90;;;;;;5058595;28;20036;-72
2022/12/02 06:18:21;;;;;;;45.35;19.17;;;3.20;99.90;;;;;;5057163;28;20048;-72
2022/12/02 06:20:52;;;;;;;47.13;19.42;;;3.30;99.90;;;;;;5074114;28;20072;-72
2022/12/02 06:23:22;;;;;;;41.70;18.73;;;3.20;99.90;;;;;;5073812;28;20118;-72
2022/12/02 06:25:51;;;;;;;46.35;19.60;;;3.30;99.90;;;;;;5056259;28;20081;-72
2022/12/02 06:28:29;;;;;;;42.22;18.10;;;3.30;99.90;;;;;;5075058;28;20036;-72
2022/12/02 06:31:17;;;;;;;44.55;20.63;;;3.30;99.90;;;;;;5058290;28;20036;-72
2022/12/02 06:33:44;;;;;;;41.03;18.85;;;3.30;99.90;;;;;;5048358;28;20040;-72
2022/12/02 06:36:19;;;;;;;43.80;19.77;;;3.30;99.90;;;;;;5074865;28;20094;-72
2022/12/02 06:38:53;;;;;;;48.83;22.15;;;3.40;99.90;;;;;;5074805;28;20477;-72
2022/12/02 06:41:22;;;;;;;42.58;19.10;;;3.30;99.90;;;;;;5073310;28;20131;-72
2022/12/02 06:46:33;;;;;;;45.03;19.83;;;3.30;99.90;;;;;;5074718;28;20135;-72
2022/12/02 06:49:01;;;;;;;43.53;18.92;;;3.30;99.90;;;;;;5070531;28;20045;-72
2022/12/02 06:51:26;;;;;;;44.53;19.88;;;3.30;99.90;;;;;;5073197;28;20082;-72
2022/12/02 06:53:52;;;;;;;46.35;18.98;;;3.30;99.90;;;;;;5073415;28;20044;-72
2022/12/02 06:56:28;;;;;;;43.47;18.92;;;3.30;99.90;;;;;;5057806;28;20035;-72
2022/12/02 06:59:01;;;;;;;44.08;21.40;;;3.30;99.90;;;;;;5072447;28;20028;-72
2022/12/02 07:01:33;;;;;;;43.63;20.00;;;3.40;99.90;;;;;;5069768;28;20094;-72
2022/12/02 07:04:07;;;;;;;44.38;19.95;;;3.40;99.90;;;;;;5061332;28;20886;-72
2022/12/02 07:06:38;;;;;;;40.00;18.85;;;3.30;99.90;;;;;;5025504;28;20037;-72
2022/12/02 07:09:26;;;;;;;44.95;19.73;;;3.40;99.90;;;;;;5056436;28;20561;-72
2022/12/02 07:11:53;;;;;;;42.05;20.02;;;3.30;99.90;;;;;;5049163;28;20566;-72
2022/12/02 07:14:31;;;;;;;42.45;19.80;;;3.40;99.90;;;;;;5041483;28;20082;-72
2022/12/02 07:17:05;;;;;;;44.35;20.67;;;3.40;99.90;;;;;;5026355;28;20038;-72
2022/12/02 07:19:42;;;;;;;40.70;19.42;;;3.40;99.90;;;;;;5049460;28;20049;-72
2022/12/02 07:22:21;;;;;;;44.10;19.45;;;3.30;99.90;;;;;;5055216;28;20055;-72
2022/12/02 07:24:56;;;;;;;43.83;17.80;;;3.40;99.90;;;;;;5041473;28;20544;-72
2022/12/02 07:27:27;;;;;;;44.55;17.30;;;3.40;99.90;;;;;;5055316;28;20040;-72
2022/12/02 07:29:54;;;;;;;41.35;19.45;;;3.40;99.90;;;;;;5035745;28;20099;-72
2022/12/02 07:32:20;;;;;;;41.30;19.13;;;3.40;99.90;;;;;;5035393;28;20102;-72
2022/12/02 07:34:46;;;;;;;37.70;15.57;;;3.40;99.90;;;;;;5037722;28;20037;-72
2022/12/02 07:37:12;;;;;;;44.05;19.83;;;3.40;99.90;;;;;;5054709;28;20032;-71
2022/12/02 07:39:38;;;;;;;43.13;17.95;;;3.30;99.90;;;;;;5059513;28;20119;-72
2022/12/02 07:42:04;;;;;;;38.33;15.15;;;3.30;99.90;;;;;;5053741;28;20041;-72
2022/12/02 07:44:29;;;;;;;41.47;17.08;;;3.40;99.90;;;;;;5054976;28;20056;-72
2022/12/02 07:46:55;;;;;;;37.90;17.23;;;3.30;99.90;;;;;;5067459;28;20033;-72
2022/12/02 07:49:20;;;;;;;39.58;16.88;;;3.30;99.90;;;;;;5036523;28;20037;-72
2022/12/02 07:51:46;;;;;;;38.92;17.52;;;3.20;99.90;;;;;;5052212;28;20036;-72
2022/12/02 07:54:11;;;;;;;40.28;17.27;;;3.30;99.90;;;;;;5058573;28;20040;-71
2022/12/02 07:56:37;;;;;;;40.10;16.25;;;3.40;99.90;;;;;;5053115;28;20068;-72
2022/12/02 07:59:03;;;;;;;43.08;18.30;;;3.30;99.90;;;;;;5053976;28;20033;-72
2022/12/02 08:01:29;;;;;;;47.17;18.92;;;3.30;99.90;;;;;;5043013;28;20036;-72
2022/12/02 08:03:54;;;;;;;36.22;15.27;;;3.10;99.90;;;;;;5045350;28;20052;-72
2022/12/02 08:06:20;;;;;;;42.17;17.17;;;3.20;99.90;;;;;;5065738;28;20098;-72
2022/12/02 08:08:45;;;;;;;42.92;17.58;;;3.20;99.90;;;;;;5035822;28;20037;-72
2022/12/02 08:11:11;;;;;;;40.88;16.48;;;3.20;99.90;;;;;;5051465;28;20438;-72
2022/12/02 08:13:36;;;;;;;44.80;16.63;;;3.20;99.90;;;;;;5043112;28;20038;-74
2022/12/02 08:16:02;;;;;;;43.95;17.80;;;3.30;99.90;;;;;;5049150;28;20030;-72
2022/12/02 08:18:28;;;;;;;53.75;21.38;;;3.20;99.90;;;;;;5041121;28;20378;-72
2022/12/02 08:20:53;;;;;;;51.10;19.67;;;3.10;99.90;;;;;;5050352;28;20048;-72
2022/12/02 08:23:19;;;;;;;52.58;20.20;;;3.10;99.90;;;;;;5052178;28;20390;-71
2022/12/02 08:25:44;;;;;;;50.38;21.15;;;3.10;99.90;;;;;;5051015;28;20102;-72
2022/12/02 08:28:10;;;;;;;52.08;20.10;;;3.20;99.90;;;;;;5040648;28;20047;-72
2022/12/02 08:30:35;;;;;;;49.10;19.23;;;3.10;99.90;;;;;;5049645;28;20072;-72
2022/12/02 08:33:01;;;;;;;45.63;19.00;;;3.20;99.90;;;;;;5043695;28;20051;-72
2022/12/02 08:35:27;;;;;;;43.03;18.52;;;3.10;99.90;;;;;;5061854;28;20394;-72
2022/12/02 08:37:52;;;;;;;42.65;18.98;;;3.10;99.90;;;;;;5064056;28;20141;-72
2022/12/02 08:40:18;;;;;;;34.80;13.55;;;3.10;99.90;;;;;;5034525;28;20041;-72
2022/12/02 08:42:43;;;;;;;33.80;15.98;;;3.20;99.90;;;;;;5050595;28;20116;-72
2022/12/02 08:45:09;;;;;;;39.78;16.80;;;3.20;99.90;;;;;;5050123;28;20040;-72
2022/12/02 08:47:35;;;;;;;41.05;16.17;;;3.00;99.90;;;;;;5039619;28;20063;-72
2022/12/02 08:50:01;;;;;;;40.90;16.45;;;2.90;99.90;;;;;;5020132;28;20486;-72
2022/12/02 08:52:26;;;;;;;36.13;15.52;;;3.00;99.90;;;;;;5049284;28;20048;-72
2022/12/02 08:54:52;;;;;;;42.88;18.35;;;3.00;99.90;;;;;;5042967;28;20124;-72
2022/12/02 08:57:18;;;;;;;44.17;16.50;;;2.90;99.90;;;;;;5034843;28;20038;-72
2022/12/02 08:59:43;;;;;;;41.88;17.38;;;3.00;99.90;;;;;;5063386;28;20040;-72
2022/12/02 09:02:09;;;;;;;43.80;18.30;;;3.00;99.90;;;;;;5037413;28;20086;-72
2022/12/02 09:04:35;;;;;;;44.80;17.02;;;3.00;99.90;;;;;;5019977;28;20060;-72
2022/12/02 09:07:00;;;;;;;38.42;14.80;;;3.10;99.90;;;;;;5061349;28;20094;-72
2022/12/02 09:09:26;;;;;;;38.58;15.18;;;3.00;99.90;;;;;;5054898;28;20140;-72
2022/12/02 09:11:52;;;;;;;44.20;19.23;;;3.00;99.90;;;;;;5050602;28;20088;-72
2022/12/02 09:14:17;;;;;;;41.88;16.38;;;3.00;99.90;;;;;;5066790;28;20036;-72
2022/12/02 09:16:43;;;;;;;44.95;17.67;;;3.10;99.90;;;;;;5043582;28;20516;-72
2022/12/02 09:19:08;;;;;;;48.40;19.20;;;3.10;99.90;;;;;;5051855;28;20098;-71
2022/12/02 09:21:34;;;;;;;39.55;14.18;;;3.00;99.90;;;;;;5068143;28;20068;-72
2022/12/02 09:23:59;;;;;;;41.63;14.43;;;3.10;99.90;;;;;;5051498;28;20124;-72
2022/12/02 09:26:25;;;;;;;47.65;17.63;;;3.20;99.90;;;;;;5068237;28;20045;-72
2022/12/02 09:28:50;;;;;;;48.60;18.25;;;3.20;99.90;;;;;;5051691;28;20070;-72
2022/12/02 09:31:16;;;;;;;47.00;17.17;;;3.00;99.90;;;;;;5051312;28;20507;-72
2022/12/02 09:33:41;;;;;;;45.30;17.42;;;3.00;99.90;;;;;;5051542;28;20043;-72
2022/12/02 09:36:07;;;;;;;43.08;17.73;;;3.00;99.90;;;;;;5051444;28;20122;-72
2022/12/02 09:38:33;;;;;;;35.30;13.75;;;3.10;99.90;;;;;;5051290;28;20041;-72
2022/12/02 09:40:59;;;;;;;43.50;16.90;;;3.30;99.90;;;;;;5051649;28;20463;-72
2022/12/02 09:43:27;;;;;;;44.67;18.27;;;3.20;99.90;;;;;;5050438;28;20033;-72
2022/12/02 09:45:53;;;;;;;39.25;17.90;;;3.20;99.90;;;;;;5034944;28;20520;-72
2022/12/02 09:48:18;;;;;;;44.83;18.77;;;3.00;99.90;;;;;;5051793;28;20077;-72
2022/12/02 09:50:44;;;;;;;42.08;16.20;;;3.10;99.90;;;;;;5050988;28;20512;-72
2022/12/02 09:53:12;;;;;;;49.33;18.45;;;3.10;99.90;;;;;;5034647;28;20033;-72
2022/12/02 09:55:38;;;;;;;44.47;18.63;;;3.00;99.90;;;;;;5034815;28;20072;-72
2022/12/02 09:58:16;;;;;;;44.38;19.55;;;3.00;99.90;;;;;;5034897;28;20076;-72
2022/12/02 10:00:42;;;;;;;42.60;18.55;;;3.10;99.90;;;;;;5051356;28;20059;-72
2022/12/02 10:03:11;;;;;;;45.60;18.83;;;3.10;99.90;;;;;;5051298;28;20092;-72
2022/12/02 10:05:37;;;;;;;47.83;19.95;;;3.10;99.90;;;;;;5034567;28;20053;-72
2022/12/02 10:08:04;;;;;;;43.75;18.77;;;3.10;99.90;;;;;;5049728;28;20047;-72
2022/12/02 10:10:36;;;;;;;44.38;18.33;;;3.10;99.90;;;;;;5033772;28;20492;-72
2022/12/02 10:13:02;;;;;;;;;;;3.10;99.90;;;;;;5051457;28;20043;-72
2022/12/02 10:15:30;;;;;;;51.38;20.65;;;3.00;99.90;;;;;;5034368;28;20381;-72
2022/12/02 10:18:07;;;;;;;42.08;17.58;;;3.00;99.90;;;;;;5051441;28;20306;-72
2022/12/02 10:20:33;;;;;;;46.08;19.65;;;3.10;99.90;;;;;;5034620;28;20554;-72
2022/12/02 10:23:20;;;;;;;46.25;21.02;;;3.00;99.90;;;;;;5050894;28;20044;-72
2022/12/02 10:25:57;;;;;;;46.05;20.67;;;3.00;99.90;;;;;;5052088;28;20099;-71
2022/12/02 10:28:31;;;;;;;47.83;20.77;;;3.00;99.90;;;;;;5035459;28;20073;-72
2022/12/02 10:31:07;;;;;;;45.80;18.27;;;3.00;99.90;;;;;;5035015;28;20037;-74
2022/12/02 10:33:37;;;;;;;49.35;21.13;;;3.00;99.90;;;;;;5038657;28;20033;-72
2022/12/02 10:36:03;;;;;;;43.95;19.80;;;3.10;99.90;;;;;;5043602;28;20106;-72
2022/12/02 10:38:39;;;;;;;48.58;19.80;;;3.00;99.90;;;;;;5048103;28;20108;-72
2022/12/02 10:41:14;;;;;;;45.72;21.85;;;3.20;99.90;;;;;;5040952;28;20047;-72
2022/12/02 10:43:42;;;;;;;47.63;20.58;;;3.10;99.90;;;;;;5057628;28;20048;-72
2022/12/02 10:46:13;;;;;;;46.95;20.65;;;3.30;99.90;;;;;;5056682;28;20041;-72
2022/12/02 10:48:39;;;;;;;44.75;20.60;;;3.20;99.90;;;;;;5055393;28;20033;-72
2022/12/02 10:51:04;;;;;;;46.75;20.65;;;3.30;99.90;;;;;;5068449;28;20044;-72
2022/12/02 10:53:30;;;;;;;45.63;18.52;;;3.40;99.90;;;;;;5054392;28;20043;-72
2022/12/02 10:55:56;;;;;;;48.53;22.05;;;3.60;99.90;;;;;;5065509;28;20101;-72
2022/12/02 10:58:28;;;;;;;50.42;21.73;;;3.50;99.90;;;;;;5032042;28;20033;-72
2022/12/02 11:00:55;;;;;;;51.75;22.88;;;3.40;99.90;;;;;;5021536;28;20115;-72
2022/12/02 11:03:21;;;;;;;46.47;20.67;;;3.40;99.90;;;;;;5073812;28;20076;-72
2022/12/02 11:05:47;;;;;;;51.47;21.33;;;3.40;99.90;;;;;;5061936;28;20037;-72
2022/12/02 11:08:21;;;;;;;45.03;18.45;;;3.60;99.90;;;;;;5030209;28;20048;-72
2022/12/02 11:10:50;;;;;;;39.85;16.30;;;3.60;99.90;;;;;;5049666;28;20517;-72
2022/12/02 11:13:48;;;;;;;54.83;27.85;;;3.60;99.90;;;;;;5049645;28;20045;-73
2022/12/02 11:16:26;;;;;;;47.20;19.85;;;3.60;99.90;;;;;;5033730;28;20497;-72
2022/12/02 11:18:57;;;;;;;48.42;22.15;;;3.70;99.90;;;;;;5036959;28;20112;-72
2022/12/02 11:21:29;;;;;;;49.45;22.20;;;3.80;99.90;;;;;;5037157;28;20045;-72
2022/12/02 11:24:22;;;;;;;51.17;21.00;;;3.80;99.90;;;;;;5037185;28;20037;-73
2022/12/02 11:27:03;;;;;;;46.42;20.15;;;3.60;99.90;;;;;;5035058;28;20520;-72
2022/12/02 11:29:30;;;;;;;43.55;20.70;;;3.70;99.90;;;;;;5063673;28;20550;-72
2022/12/02 11:32:16;;;;;;;46.40;20.65;;;3.50;99.90;;;;;;5036406;28;20060;-73
2022/12/02 11:34:43;;;;;;;51.42;22.65;;;3.70;99.90;;;;;;5045738;28;20043;-72
2022/12/02 11:37:32;;;;;;;49.45;22.92;;;3.50;99.90;;;;;;5049935;28;20037;-72
2022/12/02 11:40:10;;;;;;;45.00;21.65;;;3.50;99.90;;;;;;5039255;28;20040;-72
2022/12/02 11:42:37;;;;;;;50.90;24.15;;;3.50;99.90;;;;;;5043034;28;20041;-72
2022/12/02 11:45:14;;;;;;;52.33;26.25;;;3.50;99.90;;;;;;5036696;28;20037;-72
2022/12/02 11:47:44;;;;;;;48.72;24.02;;;3.50;99.90;;;;;;5073395;28;20119;-72
2022/12/02 11:50:21;;;;;;;47.83;24.95;;;3.50;99.90;;;;;;5056733;28;20409;-72
2022/12/02 11:52:53;;;;;;;47.17;20.58;;;3.40;99.90;;;;;;5063154;28;20040;-72
2022/12/02 11:55:23;;;;;;;40.88;20.30;;;3.40;99.90;;;;;;5043434;28;21396;-72
2022/12/02 11:57:55;;;;;;;48.88;21.27;;;3.40;99.90;;;;;;5051750;28;20436;-72
2022/12/02 12:00:32;;;;;;;45.97;23.25;;;3.50;99.90;;;;;;5054117;28;20051;-72
2022/12/02 12:03:16;;;;;;;45.58;21.75;;;3.40;99.90;;;;;;5072087;28;20064;-78
2022/12/02 12:06:06;;;;;;;47.88;24.08;;;3.40;99.90;;;;;;5052007;28;20440;-72
2022/12/02 12:08:32;;;;;;;48.55;23.50;;;3.40;99.90;;;;;;5052129;28;20119;-73
2022/12/02 12:11:18;;;;;;;49.53;24.45;;;3.60;99.90;;;;;;5052467;28;20119;-73
2022/12/02 12:14:10;;;;;;;45.85;21.95;;;3.50;99.90;;;;;;5069706;28;20048;-72
2022/12/02 12:16:38;;;;;;;47.58;21.67;;;3.50;99.90;;;;;;5054702;28;20036;-72
2022/12/02 12:19:12;;;;;;;51.10;23.95;;;3.50;99.90;;;;;;5072450;28;20557;-72
2022/12/02 12:21:55;;;;;;;46.33;22.15;;;3.40;99.90;;;;;;5053688;28;20044;-73
2022/12/02 12:24:22;;;;;;;46.13;23.30;;;3.40;99.90;;;;;;5051189;28;20041;-74
2022/12/02 12:26:48;;;;;;;44.40;22.95;;;3.50;99.90;;;;;;5040357;28;20079;-78
2022/12/02 12:29:15;;;;;;;43.97;22.33;;;3.50;99.90;;;;;;5026915;28;20084;-73
2022/12/02 12:31:41;;;;;;;47.28;23.67;;;3.50;99.90;;;;;;5043404;28;20086;-72
2022/12/02 12:34:07;;;;;;;47.30;19.50;;;3.40;99.90;;;;;;5049078;28;20085;-73
2022/12/02 12:36:33;;;;;;;186.00;34.90;;;3.40;99.90;;;;;;5040971;28;20029;-81
2022/12/02 12:38:59;;;;;;;75.50;25.35;;;3.40;99.90;;;;;;5052014;28;20033;-74
2022/12/02 12:41:25;;;;;;;49.67;24.85;;;3.40;99.90;;;;;;5038354;28;20180;-76
2022/12/02 12:43:50;;;;;;;62.75;24.40;;;3.40;99.90;;;;;;5051370;28;20044;-76
2022/12/02 12:46:16;;;;;;;41.58;21.65;;;3.40;99.90;;;;;;5055422;28;20504;-74
2022/12/02 12:48:42;;;;;;;50.40;25.45;;;3.50;99.90;;;;;;5070647;28;20040;-71